Time;durP1;ratioP1;P1;durP2;ratioP2;P2;SDS_P1;SDS_P2;PMS_P1;PMS_P2;Temp;Humidity;BMP_temperature;BMP_pressure;BME280_temperature;BME280_humidity;BME280_pressure;Samples;Min_cycle;Max_cycle;Signal;HPM_P1;HPM_P2
2021/08/21 00:01:50;;;;;;;5.97;5.47;;;17.90;99.90;;;;;;4990245;28;20470;-51
2021/08/21 00:04:15;;;;;;;5.57;5.07;;;17.80;99.90;;;;;;4986333;28;20192;-51
2021/08/21 00:06:44;;;;;;;6.73;6.10;;;17.80;99.90;;;;;;4990839;28;20250;-51
2021/08/21 00:09:13;;;;;;;11.35;5.28;;;18.00;99.90;;;;;;4989579;28;20199;-51
2021/08/21 00:11:39;;;;;;;5.57;5.07;;;18.00;99.90;;;;;;4988438;28;20187;-51
2021/08/21 00:14:05;;;;;;;5.20;4.80;;;18.00;99.90;;;;;;4989457;28;20191;-51
2021/08/21 00:16:32;;;;;;;7.30;5.20;;;18.00;99.90;;;;;;4989122;28;20739;-51
2021/08/21 00:18:58;;;;;;;5.15;4.53;;;18.00;99.90;;;;;;4989262;28;20207;-51
2021/08/21 00:21:24;;;;;;;8.75;4.97;;;18.10;99.90;;;;;;4985363;28;20191;-51
2021/08/21 00:23:50;;;;;;;5.40;4.90;;;18.10;99.90;;;;;;4990710;28;20238;-50
2021/08/21 00:26:16;;;;;;;5.73;5.23;;;18.10;99.90;;;;;;4982576;28;20493;-51
2021/08/21 00:28:41;;;;;;;5.30;4.90;;;18.10;99.90;;;;;;4990528;28;20430;-51
2021/08/21 00:31:07;;;;;;;8.10;4.77;;;18.10;99.90;;;;;;4990996;28;20187;-50
2021/08/21 00:33:33;;;;;;;5.50;4.77;;;18.00;99.90;;;;;;4988132;28;20188;-51
2021/08/21 00:35:59;;;;;;;5.30;4.80;;;18.00;99.90;;;;;;4989088;28;20330;-50
2021/08/21 00:38:25;;;;;;;5.70;5.20;;;17.80;99.90;;;;;;4989566;28;20187;-49
2021/08/21 00:40:51;;;;;;;6.80;5.03;;;17.80;99.90;;;;;;4985156;28;20467;-51
2021/08/21 00:43:18;;;;;;;5.38;4.88;;;17.90;99.90;;;;;;4990526;28;20219;-51
2021/08/21 00:45:44;;;;;;;5.22;4.72;;;18.00;99.90;;;;;;4990081;28;20184;-50
2021/08/21 00:48:10;;;;;;;6.00;5.50;;;18.00;99.90;;;;;;4989825;28;20554;-52
2021/08/21 00:50:35;;;;;;;6.23;5.50;;;17.90;99.90;;;;;;4988315;28;20191;-51
2021/08/21 00:53:02;;;;;;;6.00;5.40;;;17.90;99.90;;;;;;4990272;28;20225;-51
2021/08/21 00:55:27;;;;;;;6.28;5.53;;;18.00;99.90;;;;;;4987811;28;21021;-51
2021/08/21 00:57:54;;;;;;;6.00;5.47;;;18.00;99.90;;;;;;4987067;28;20191;-51
2021/08/21 01:00:20;;;;;;;4.75;4.35;;;17.90;99.90;;;;;;4988959;28;20196;-52
2021/08/21 01:02:46;;;;;;;5.55;5.05;;;17.90;99.90;;;;;;4990156;28;20214;-52
2021/08/21 01:05:15;;;;;;;5.63;5.13;;;17.90;99.90;;;;;;4989022;28;20218;-52
2021/08/21 01:07:41;;;;;;;5.32;4.88;;;17.90;99.90;;;;;;4986174;28;20208;-52
2021/08/21 01:10:09;;;;;;;6.00;5.50;;;17.90;99.90;;;;;;4989734;28;20192;-52
2021/08/21 01:12:35;;;;;;;5.43;5.03;;;17.90;99.90;;;;;;4989298;28;20438;-52
2021/08/21 01:15:03;;;;;;;4.90;4.50;;;17.90;99.90;;;;;;4986590;28;20202;-52
2021/08/21 01:17:29;;;;;;;5.75;5.18;;;18.00;99.90;;;;;;4988938;28;20210;-51
2021/08/21 01:19:54;;;;;;;5.53;5.07;;;18.00;99.90;;;;;;4990721;28;20195;-51
2021/08/21 01:22:26;;;;;;;5.03;4.63;;;17.90;99.90;;;;;;4990385;28;20558;-50
2021/08/21 01:24:53;;;;;;;6.38;5.63;;;18.00;99.90;;;;;;4992157;28;20207;-51
2021/08/21 01:27:25;;;;;;;5.80;5.40;;;18.00;99.90;;;;;;4987968;28;20249;-50
2021/08/21 01:29:52;;;;;;;5.40;5.00;;;18.00;99.90;;;;;;4993859;28;20271;-50
2021/08/21 01:32:19;;;;;;;6.15;5.60;;;18.00;99.90;;;;;;4993897;28;20191;-50
2021/08/21 01:34:46;;;;;;;6.00;5.40;;;17.90;99.90;;;;;;4986629;28;20190;-51
2021/08/21 01:37:17;;;;;;;7.35;5.55;;;17.90;99.90;;;;;;4992704;28;20468;-50
2021/08/21 01:39:44;;;;;;;5.78;5.28;;;17.80;99.90;;;;;;4992155;28;20215;-50
2021/08/21 01:42:10;;;;;;;5.30;4.88;;;17.80;99.90;;;;;;4991292;28;20635;-50
2021/08/21 01:44:36;;;;;;;6.90;5.87;;;17.70;99.90;;;;;;4992946;28;20195;-50
2021/08/21 01:47:01;;;;;;;5.70;5.20;;;17.60;99.90;;;;;;4990319;28;20318;-50
2021/08/21 01:49:27;;;;;;;6.53;6.00;;;17.60;99.90;;;;;;4986014;28;20188;-49
2021/08/21 01:51:53;;;;;;;6.70;6.10;;;17.70;99.90;;;;;;4993630;28;20187;-51
2021/08/21 01:54:23;;;;;;;8.73;5.47;;;17.40;99.90;;;;;;4990353;28;20187;-50
2021/08/21 01:56:51;;;;;;;6.63;5.97;;;17.70;99.90;;;;;;4991386;28;20354;-50
2021/08/21 01:59:30;;;;;;;6.60;6.10;;;17.70;99.90;;;;;;4991161;28;20195;-49
2021/08/21 02:01:56;;;;;;;6.45;5.85;;;17.70;99.90;;;;;;4992311;28;20207;-50
2021/08/21 02:04:22;;;;;;;5.70;5.25;;;17.70;99.90;;;;;;4989788;28;20184;-49
2021/08/21 02:06:49;;;;;;;5.68;5.18;;;17.60;99.90;;;;;;4993384;28;20238;-49
2021/08/21 02:09:17;;;;;;;7.05;6.35;;;17.60;99.90;;;;;;4993338;28;20226;-50
2021/08/21 02:11:48;;;;;;;5.45;4.95;;;17.60;99.90;;;;;;4986982;28;20191;-50
2021/08/21 02:14:17;;;;;;;6.45;5.85;;;17.40;99.90;;;;;;4992984;28;20728;-51
2021/08/21 02:16:49;;;;;;;7.00;6.28;;;17.50;99.90;;;;;;4986584;28;20654;-51
2021/08/21 02:19:15;;;;;;;6.60;6.00;;;17.70;99.90;;;;;;4989058;28;20203;-50
2021/08/21 02:21:41;;;;;;;6.93;6.33;;;17.70;99.90;;;;;;4991461;28;20623;-50
2021/08/21 02:24:07;;;;;;;6.40;5.87;;;17.40;99.90;;;;;;4992755;28;20183;-51
2021/08/21 02:26:43;;;;;;;7.10;5.75;;;17.40;99.90;;;;;;4991072;28;20536;-50
2021/08/21 02:29:15;;;;;;;5.97;5.47;;;17.40;99.90;;;;;;4992596;28;20183;-50
2021/08/21 02:31:40;;;;;;;6.10;5.60;;;17.40;99.90;;;;;;4991358;28;20190;-50
2021/08/21 02:34:06;;;;;;;5.90;5.40;;;17.50;99.90;;;;;;4988247;28;20547;-50
2021/08/21 02:36:32;;;;;;;5.63;5.07;;;17.20;99.90;;;;;;4992334;28;20246;-51
2021/08/21 02:38:58;;;;;;;6.50;5.88;;;17.10;99.90;;;;;;4991265;28;20183;-50
2021/08/21 02:41:24;;;;;;;7.33;6.73;;;17.20;99.90;;;;;;4987495;28;20250;-51
2021/08/21 02:43:50;;;;;;;6.85;6.25;;;17.00;99.90;;;;;;4992421;28;20806;-51
2021/08/21 02:46:17;;;;;;;6.70;6.10;;;17.00;99.90;;;;;;4992702;28;20210;-50
2021/08/21 02:48:43;;;;;;;6.10;5.50;;;17.10;99.90;;;;;;4988827;28;20187;-52
2021/08/21 02:51:09;;;;;;;7.15;6.45;;;17.00;99.90;;;;;;4992251;28;20211;-51
2021/08/21 02:53:34;;;;;;;7.10;6.40;;;16.90;99.90;;;;;;4992569;28;20253;-51
2021/08/21 02:56:00;;;;;;;6.57;5.80;;;16.90;99.90;;;;;;4991571;28;20653;-51
2021/08/21 02:58:27;;;;;;;6.27;5.77;;;16.90;99.90;;;;;;4991379;28;20196;-52
2021/08/21 03:00:53;;;;;;;7.07;6.47;;;16.50;99.90;;;;;;4991505;28;20187;-50
2021/08/21 03:03:19;;;;;;;6.60;6.00;;;16.90;99.90;;;;;;4992438;28;20223;-51
2021/08/21 03:05:45;;;;;;;6.70;6.10;;;16.70;99.90;;;;;;4986050;28;20486;-50
2021/08/21 03:08:10;;;;;;;7.10;6.40;;;16.70;99.90;;;;;;4992777;28;20297;-51
2021/08/21 03:10:36;;;;;;;6.90;6.30;;;16.80;99.90;;;;;;4988275;28;20191;-50
2021/08/21 03:13:04;;;;;;;6.22;5.72;;;16.80;99.90;;;;;;4985190;28;20191;-52
2021/08/21 03:15:30;;;;;;;7.18;6.07;;;16.60;99.90;;;;;;4992170;28;20626;-50
2021/08/21 03:17:57;;;;;;;6.75;6.15;;;16.70;99.90;;;;;;4990557;28;20187;-50
2021/08/21 03:20:23;;;;;;;7.63;6.90;;;16.70;99.90;;;;;;4989433;28;20331;-50
2021/08/21 03:22:49;;;;;;;7.00;6.30;;;16.50;99.90;;;;;;4991433;28;20734;-49
2021/08/21 03:25:15;;;;;;;6.70;6.10;;;16.70;99.90;;;;;;4990031;28;20274;-49
2021/08/21 03:27:40;;;;;;;7.00;6.40;;;16.70;99.90;;;;;;4987337;28;20249;-50
2021/08/21 03:30:07;;;;;;;6.40;5.90;;;16.50;99.90;;;;;;4991035;28;20268;-50
2021/08/21 03:32:33;;;;;;;6.38;5.78;;;16.50;99.90;;;;;;4990246;28;20238;-49
2021/08/21 03:35:00;;;;;;;7.17;6.57;;;16.50;99.90;;;;;;4990761;28;20191;-50
2021/08/21 03:37:26;;;;;;;7.03;6.32;;;16.50;99.90;;;;;;4991441;28;20497;-50
2021/08/21 03:39:52;;;;;;;7.15;6.45;;;16.30;99.90;;;;;;4990515;28;20191;-50
2021/08/21 03:42:18;;;;;;;7.57;6.97;;;16.50;99.90;;;;;;4986920;28;20214;-50
2021/08/21 03:44:43;;;;;;;6.50;5.90;;;16.30;99.90;;;;;;4991082;28;20960;-51
2021/08/21 03:47:10;;;;;;;7.30;6.40;;;16.20;99.90;;;;;;4989636;28;20849;-50
2021/08/21 03:49:36;;;;;;;7.60;6.95;;;16.00;99.90;;;;;;4984305;28;20246;-50
2021/08/21 03:52:01;;;;;;;6.97;6.37;;;16.10;99.90;;;;;;4990901;28;20195;-50
2021/08/21 03:54:27;;;;;;;7.50;6.90;;;16.20;99.90;;;;;;4990144;28;20478;-49
2021/08/21 03:56:53;;;;;;;7.23;6.70;;;16.10;99.90;;;;;;4984089;28;20218;-50
2021/08/21 03:59:19;;;;;;;6.65;6.00;;;16.10;99.90;;;;;;4989369;28;20183;-50
2021/08/21 04:01:45;;;;;;;7.90;6.90;;;16.00;99.90;;;;;;4989045;28;20211;-51
2021/08/21 04:04:10;;;;;;;7.77;6.97;;;16.20;99.90;;;;;;4987210;28;20317;-50
2021/08/21 04:06:40;;;;;;;6.90;6.30;;;16.00;99.90;;;;;;4989628;28;20257;-50
2021/08/21 04:09:06;;;;;;;7.75;7.05;;;16.10;99.90;;;;;;4990599;28;20195;-50
2021/08/21 04:11:32;;;;;;;6.78;6.18;;;16.00;99.90;;;;;;4985111;28;20189;-51
2021/08/21 04:13:58;;;;;;;7.33;6.67;;;16.10;99.90;;;;;;4990725;28;20195;-58
2021/08/21 04:16:23;;;;;;;7.93;7.23;;;16.10;99.90;;;;;;4986451;28;20984;-57
2021/08/21 04:18:49;;;;;;;7.40;6.57;;;15.70;99.90;;;;;;4990390;28;20209;-57
2021/08/21 04:21:15;;;;;;;8.37;7.07;;;15.80;99.90;;;;;;4987019;28;20191;-54
2021/08/21 04:23:40;;;;;;;7.23;6.53;;;15.90;99.90;;;;;;4989972;28;20614;-53
2021/08/21 04:26:06;;;;;;;7.37;6.70;;;15.80;99.90;;;;;;4984932;28;20203;-53
2021/08/21 04:28:32;;;;;;;8.03;7.23;;;15.90;99.90;;;;;;4989725;28;20172;-53
2021/08/21 04:30:58;;;;;;;7.80;7.00;;;15.80;99.90;;;;;;4989845;28;20181;-52
2021/08/21 04:33:24;;;;;;;7.07;6.38;;;15.40;99.90;;;;;;4990730;28;20187;-52
2021/08/21 04:35:50;;;;;;;7.67;6.97;;;15.60;99.90;;;;;;4986942;28;20207;-52
2021/08/21 04:38:17;;;;;;;6.65;6.05;;;15.60;99.90;;;;;;4988360;28;21053;-53
2021/08/21 04:40:47;;;;;;;6.90;6.20;;;15.80;99.90;;;;;;4985368;28;20685;-53
2021/08/21 04:43:16;;;;;;;7.97;7.20;;;15.60;99.90;;;;;;4987530;28;20322;-53
2021/08/21 04:45:43;;;;;;;7.03;6.43;;;15.60;99.90;;;;;;4988346;28;20186;-53
2021/08/21 04:48:09;;;;;;;7.63;6.93;;;15.80;99.90;;;;;;4988396;28;20179;-52
2021/08/21 04:50:36;;;;;;;7.68;6.95;;;15.30;99.90;;;;;;4987156;28;20270;-55
2021/08/21 04:53:03;;;;;;;7.53;6.90;;;15.20;99.90;;;;;;4987331;28;20235;-54
2021/08/21 04:55:29;;;;;;;8.20;7.15;;;15.80;99.90;;;;;;4991977;28;20239;-54
2021/08/21 04:57:56;;;;;;;7.10;6.40;;;15.30;99.90;;;;;;4995329;28;20620;-53
2021/08/21 05:00:22;;;;;;;6.80;6.20;;;15.60;99.90;;;;;;4992900;28;20179;-54
2021/08/21 05:02:47;;;;;;;6.85;6.25;;;15.70;99.90;;;;;;4994591;28;20219;-54
2021/08/21 05:05:13;;;;;;;6.53;5.93;;;16.00;99.90;;;;;;4990583;28;20171;-53
2021/08/21 05:07:45;;;;;;;7.40;6.70;;;16.00;99.90;;;;;;4993006;28;20196;-54
2021/08/21 05:10:12;;;;;;;7.57;6.70;;;15.80;99.90;;;;;;4993048;28;20184;-54
2021/08/21 05:12:37;;;;;;;7.97;7.18;;;15.70;99.90;;;;;;4985355;28;20246;-53
2021/08/21 05:15:03;;;;;;;7.97;7.03;;;15.90;99.90;;;;;;4993881;28;20175;-54
2021/08/21 05:17:29;;;;;;;7.40;6.50;;;16.00;99.90;;;;;;4993296;28;20206;-55
2021/08/21 05:19:54;;;;;;;7.10;6.10;;;15.90;99.90;;;;;;4990657;28;20238;-53
2021/08/21 05:22:28;;;;;;;7.70;7.00;;;16.10;99.90;;;;;;4993640;28;20208;-55
2021/08/21 05:24:54;;;;;;;10.90;7.55;;;16.10;99.90;;;;;;4992786;28;20179;-51
2021/08/21 05:27:22;;;;;;;7.73;7.03;;;16.20;99.90;;;;;;4986772;28;20254;-50
2021/08/21 05:29:48;;;;;;;6.93;6.25;;;16.40;99.90;;;;;;4992614;28;20470;-51
2021/08/21 05:32:14;;;;;;;7.60;6.60;;;16.40;99.90;;;;;;4993446;28;20285;-51
2021/08/21 05:34:39;;;;;;;7.07;6.47;;;16.50;99.90;;;;;;4989595;28;20457;-51
2021/08/21 05:37:05;;;;;;;7.60;6.83;;;16.60;99.90;;;;;;4993237;28;20462;-49
2021/08/21 05:39:34;;;;;;;7.13;6.33;;;16.90;99.90;;;;;;4993375;28;20188;-49
2021/08/21 05:42:00;;;;;;;7.25;6.55;;;16.80;99.90;;;;;;4991445;28;20215;-52
2021/08/21 05:44:26;;;;;;;7.47;6.78;;;16.80;99.90;;;;;;4992029;28;20219;-50
2021/08/21 05:46:52;;;;;;;6.40;5.90;;;16.70;99.90;;;;;;4993480;28;20214;-50
2021/08/21 05:49:18;;;;;;;9.30;6.73;;;17.10;99.90;;;;;;4991075;28;20183;-51
2021/08/21 05:51:43;;;;;;;7.47;6.73;;;17.00;99.90;;;;;;4993321;28;20660;-51
2021/08/21 05:54:09;;;;;;;6.60;6.00;;;17.50;99.90;;;;;;4992979;28;20450;-51
2021/08/21 05:56:35;;;;;;;6.23;5.73;;;17.50;99.90;;;;;;4991782;28;20217;-53
2021/08/21 05:59:00;;;;;;;6.50;5.93;;;17.60;99.90;;;;;;4992942;28;20585;-51
2021/08/21 06:01:26;;;;;;;6.20;5.70;;;17.90;99.90;;;;;;4993087;28;20198;-50
2021/08/21 06:03:52;;;;;;;6.73;6.13;;;17.70;99.90;;;;;;4992902;28;20641;-51
2021/08/21 06:06:20;;;;;;;6.40;5.80;;;18.00;99.90;;;;;;4990163;28;20196;-50
2021/08/21 06:08:46;;;;;;;7.18;6.53;;;18.00;99.90;;;;;;4992144;28;20180;-49
2021/08/21 06:11:12;;;;;;;6.03;5.53;;;18.20;99.90;;;;;;4986306;28;20337;-52
2021/08/21 06:13:38;;;;;;;7.37;6.63;;;18.40;99.90;;;;;;4990278;28;20183;-51
2021/08/21 06:16:04;;;;;;;6.40;5.80;;;18.20;99.90;;;;;;4992808;28;20211;-50
2021/08/21 06:18:31;;;;;;;6.30;5.80;;;18.20;99.90;;;;;;4992110;28;20286;-50
2021/08/21 06:20:57;;;;;;;6.60;6.00;;;18.30;99.90;;;;;;4992057;28;20946;-50
2021/08/21 06:23:23;;;;;;;6.90;6.30;;;18.40;99.90;;;;;;4987430;28;20220;-52
2021/08/21 06:25:49;;;;;;;7.07;6.47;;;18.40;99.90;;;;;;4987543;28;20200;-51
2021/08/21 06:28:15;;;;;;;6.55;5.95;;;18.50;99.90;;;;;;4984633;28;20279;-51
2021/08/21 06:30:40;;;;;;;6.90;6.30;;;18.60;99.90;;;;;;4988695;28;20274;-52
2021/08/21 06:33:06;;;;;;;7.13;6.33;;;18.70;99.90;;;;;;4990873;28;20278;-50
2021/08/21 06:35:32;;;;;;;7.10;6.40;;;18.70;99.90;;;;;;4984745;28;20230;-51
2021/08/21 06:37:58;;;;;;;7.60;6.90;;;18.60;99.90;;;;;;4992218;28;20439;-52
2021/08/21 06:40:24;;;;;;;7.17;6.57;;;18.60;99.90;;;;;;4985484;28;20191;-51
2021/08/21 06:42:49;;;;;;;7.63;6.90;;;18.70;99.90;;;;;;4992208;28;20257;-51
2021/08/21 06:45:15;;;;;;;9.03;8.13;;;18.90;99.90;;;;;;4991329;28;20180;-51
2021/08/21 06:47:41;;;;;;;7.50;6.80;;;19.20;99.90;;;;;;4984556;28;20862;-51
2021/08/21 06:50:09;;;;;;;8.10;7.50;;;19.50;99.90;;;;;;4987484;28;20485;-51
2021/08/21 06:52:35;;;;;;;7.70;7.00;;;19.80;99.90;;;;;;4987988;28;20376;-51
2021/08/21 06:55:01;;;;;;;7.40;6.77;;;20.00;99.90;;;;;;4986474;28;20238;-52
2021/08/21 06:57:26;;;;;;;6.93;6.33;;;20.20;99.90;;;;;;4984076;28;20286;-52
2021/08/21 06:59:52;;;;;;;7.67;6.60;;;20.30;99.90;;;;;;4988196;28;20176;-52
2021/08/21 07:02:18;;;;;;;7.20;6.57;;;20.40;99.90;;;;;;4992024;28;20207;-51
2021/08/21 07:04:43;;;;;;;8.27;7.50;;;20.70;99.90;;;;;;4989424;28;20188;-51
2021/08/21 07:07:09;;;;;;;7.60;7.00;;;20.80;99.90;;;;;;4988685;28;20204;-51
2021/08/21 07:09:36;;;;;;;7.67;6.90;;;20.90;99.90;;;;;;4990849;28;20211;-51
2021/08/21 07:12:02;;;;;;;8.23;7.53;;;21.60;99.90;;;;;;4990121;28;20187;-52
2021/08/21 07:14:28;;;;;;;6.90;6.23;;;22.70;99.40;;;;;;4990909;28;20443;-52
2021/08/21 07:16:55;;;;;;;7.13;6.27;;;23.90;97.90;;;;;;4990923;28;20497;-52
2021/08/21 07:19:21;;;;;;;6.53;5.93;;;25.80;93.70;;;;;;4989608;28;20470;-53
2021/08/21 07:21:46;;;;;;;6.27;5.57;;;27.20;90.70;;;;;;4990790;28;20831;-52
2021/08/21 07:24:12;;;;;;;6.17;5.70;;;28.80;85.40;;;;;;4991284;28;20783;-52
2021/08/21 07:26:38;;;;;;;6.63;5.80;;;30.20;79.00;;;;;;4988812;28;20196;-52
2021/08/21 07:29:05;;;;;;;6.90;5.93;;;30.80;73.90;;;;;;4990413;28;20236;-52
2021/08/21 07:31:31;;;;;;;5.83;5.33;;;31.70;70.60;;;;;;4990680;28;20642;-52
2021/08/21 07:33:57;;;;;;;5.10;4.70;;;32.80;66.70;;;;;;4991495;28;20447;-52
2021/08/21 07:36:23;;;;;;;6.37;5.80;;;33.90;62.70;;;;;;4988466;28;21037;-52
2021/08/21 07:38:51;;;;;;;6.00;5.60;;;32.40;62.00;;;;;;4992296;28;20215;-52
2021/08/21 07:41:16;;;;;;;5.93;5.43;;;31.70;63.10;;;;;;4989805;28;20489;-52
2021/08/21 07:43:42;;;;;;;6.07;5.57;;;31.10;67.00;;;;;;4990796;28;20498;-51
2021/08/21 07:46:08;;;;;;;5.20;4.77;;;31.70;64.60;;;;;;4987009;28;20584;-51
2021/08/21 07:48:34;;;;;;;5.53;5.13;;;32.30;64.30;;;;;;4988993;28;20238;-51
2021/08/21 07:50:59;;;;;;;5.80;5.27;;;34.10;60.20;;;;;;4987105;28;20207;-52
2021/08/21 07:53:25;;;;;;;6.40;5.90;;;35.30;57.40;;;;;;4990910;28;20196;-51
2021/08/21 07:55:51;;;;;;;5.57;5.07;;;34.50;56.80;;;;;;4985637;28;20238;-51
2021/08/21 07:58:16;;;;;;;4.70;4.40;;;35.80;55.30;;;;;;4989353;28;20209;-54
2021/08/21 08:00:42;;;;;;;4.47;4.13;;;37.10;53.00;;;;;;4988520;28;20303;-53
2021/08/21 08:03:12;;;;;;;4.90;4.60;;;37.90;51.00;;;;;;4988454;28;20215;-53
2021/08/21 08:05:38;;;;;;;4.60;4.30;;;38.60;48.80;;;;;;4987219;28;20530;-53
2021/08/21 08:08:04;;;;;;;4.40;4.00;;;38.70;47.00;;;;;;4985413;28;20450;-52
2021/08/21 08:10:30;;;;;;;6.00;5.40;;;36.60;48.40;;;;;;4985172;28;20896;-52
2021/08/21 08:12:55;;;;;;;5.30;4.43;;;35.70;50.70;;;;;;4989041;28;20845;-52
2021/08/21 08:15:21;;;;;;;4.87;4.57;;;37.00;49.60;;;;;;4988009;28;20187;-53
2021/08/21 08:17:47;;;;;;;5.30;4.90;;;38.40;47.90;;;;;;4989946;28;20223;-54
2021/08/21 08:20:13;;;;;;;4.90;4.50;;;39.40;46.10;;;;;;4988117;28;20276;-53
2021/08/21 08:22:39;;;;;;;4.70;4.30;;;38.10;45.80;;;;;;4989455;28;20218;-52
2021/08/21 08:25:06;;;;;;;4.40;4.00;;;36.30;48.30;;;;;;4989582;28;20438;-54
2021/08/21 08:27:31;;;;;;;5.57;5.07;;;35.90;49.50;;;;;;4987687;28;20532;-53
2021/08/21 08:29:57;;;;;;;5.20;4.80;;;37.00;48.30;;;;;;4989459;28;20446;-55
2021/08/21 08:32:23;;;;;;;5.70;5.30;;;36.50;48.80;;;;;;4990247;28;20318;-55
2021/08/21 08:34:48;;;;;;;5.23;4.83;;;37.10;47.50;;;;;;4981254;28;20191;-54
2021/08/21 08:37:14;;;;;;;5.13;4.73;;;37.40;46.90;;;;;;4976275;28;20693;-53
2021/08/21 08:39:41;;;;;;;5.67;5.27;;;37.10;47.50;;;;;;4983181;28;20263;-51
2021/08/21 08:42:09;;;;;;;5.07;4.67;;;37.30;47.10;;;;;;4985008;28;20203;-52
2021/08/21 08:44:41;;;;;;;4.80;4.40;;;37.20;47.00;;;;;;4981973;28;20442;-53
2021/08/21 08:47:08;;;;;;;5.53;5.13;;;37.10;46.90;;;;;;4987347;28;20469;-53
2021/08/21 08:49:36;;;;;;;5.47;5.00;;;37.10;47.60;;;;;;4988561;28;20939;-52
2021/08/21 08:52:01;;;;;;;5.30;4.90;;;37.50;46.80;;;;;;4987441;28;20496;-57
2021/08/21 08:54:27;;;;;;;5.57;5.17;;;37.30;46.20;;;;;;4989723;28;20434;-56
2021/08/21 08:56:53;;;;;;;6.40;5.80;;;36.00;48.30;;;;;;4983385;28;20722;-57
2021/08/21 08:59:18;;;;;;;4.93;4.50;;;35.50;49.80;;;;;;4989672;28;20521;-57
2021/08/21 09:01:44;;;;;;;6.90;6.30;;;36.00;49.50;;;;;;4990329;28;20303;-57
2021/08/21 09:04:23;;;;;;;5.37;4.87;;;37.00;48.80;;;;;;4987279;28;20195;-57
2021/08/21 09:06:50;;;;;;;5.53;5.13;;;38.50;46.50;;;;;;4981412;28;20195;-57
2021/08/21 09:09:20;;;;;;;5.50;5.00;;;38.70;45.80;;;;;;4988600;28;20464;-57
2021/08/21 09:11:52;;;;;;;9.63;6.73;;;38.70;45.30;;;;;;4987119;28;20481;-57
2021/08/21 09:14:30;;;;;;;5.20;4.83;;;36.60;47.60;;;;;;4989015;28;20521;-57
2021/08/21 09:17:14;;;;;;;6.77;6.10;;;36.10;49.60;;;;;;4988129;28;20562;-57
2021/08/21 09:19:40;;;;;;;5.03;4.63;;;35.70;50.60;;;;;;4985666;28;20466;-56
2021/08/21 09:22:07;;;;;;;5.57;5.00;;;36.30;49.50;;;;;;4988843;28;20972;-56
2021/08/21 09:24:34;;;;;;;6.23;5.63;;;34.60;51.30;;;;;;4989230;28;20235;-57
2021/08/21 09:27:21;;;;;;;5.43;5.03;;;34.60;52.60;;;;;;4986343;28;20482;-56
2021/08/21 09:30:06;;;;;;;5.60;5.10;;;34.50;53.00;;;;;;4988920;28;20477;-55
2021/08/21 09:32:32;;;;;;;5.20;4.80;;;33.30;54.00;;;;;;4989610;28;20437;-55
2021/08/21 09:35:09;;;;;;;5.53;5.03;;;31.90;57.40;;;;;;4985194;28;20985;-56
2021/08/21 09:37:52;;;;;;;5.57;5.03;;;30.80;59.10;;;;;;4988266;28;20272;-56
2021/08/21 09:40:36;;;;;;;5.70;5.20;;;30.40;61.80;;;;;;4987376;28;20442;-55
2021/08/21 09:43:07;;;;;;;5.87;5.37;;;29.40;64.90;;;;;;4992181;28;21040;-55
2021/08/21 09:45:39;;;;;;;6.57;5.53;;;29.30;67.30;;;;;;4992338;28;20452;-55
2021/08/21 09:48:06;;;;;;;5.57;5.17;;;29.20;67.30;;;;;;4985144;28;20517;-55
2021/08/21 09:50:35;;;;;;;6.00;5.50;;;29.00;68.20;;;;;;4985481;28;20441;-55
2021/08/21 09:53:12;;;;;;;5.63;5.23;;;28.70;67.40;;;;;;4992412;28;20937;-56
2021/08/21 09:55:39;;;;;;;6.03;5.53;;;28.60;69.60;;;;;;4990094;28;20448;-56
2021/08/21 09:58:07;;;;;;;5.80;5.37;;;28.70;69.50;;;;;;4984268;28;20504;-54
2021/08/21 10:00:38;;;;;;;6.47;5.37;;;28.80;70.50;;;;;;4989339;28;20494;-56
2021/08/21 10:03:04;;;;;;;5.70;5.20;;;29.10;68.60;;;;;;4992120;28;20476;-55
2021/08/21 10:05:31;;;;;;;5.83;5.33;;;29.30;68.30;;;;;;4988419;28;20450;-56
2021/08/21 10:08:12;;;;;;;5.87;5.40;;;29.00;69.60;;;;;;4991986;28;20495;-56
2021/08/21 10:10:48;;;;;;;8.00;5.20;;;29.10;69.50;;;;;;4987443;28;20438;-55
2021/08/21 10:13:24;;;;;;;5.80;5.30;;;28.90;69.50;;;;;;4992281;28;20478;-56
2021/08/21 10:15:51;;;;;;;5.77;5.27;;;28.90;70.40;;;;;;4992009;28;20518;-55
2021/08/21 10:18:19;;;;;;;6.27;5.67;;;28.90;69.60;;;;;;4986774;28;20460;-56
2021/08/21 10:20:45;;;;;;;6.00;5.50;;;28.90;70.70;;;;;;4989168;28;20447;-55
2021/08/21 10:23:14;;;;;;;5.63;5.10;;;28.90;69.60;;;;;;4992020;28;20570;-55
2021/08/21 10:25:47;;;;;;;5.83;5.10;;;28.90;70.50;;;;;;4987597;28;20260;-55
2021/08/21 10:28:15;;;;;;;6.17;5.67;;;28.90;70.80;;;;;;4989773;28;20957;-56
2021/08/21 10:30:47;;;;;;;5.70;5.20;;;28.80;70.70;;;;;;4989666;28;20432;-56
2021/08/21 10:33:14;;;;;;;6.00;5.47;;;28.40;71.30;;;;;;4991615;28;20444;-56
2021/08/21 10:35:50;;;;;;;6.50;6.00;;;28.30;72.90;;;;;;4988180;28;20435;-56
2021/08/21 10:38:32;;;;;;;6.00;5.53;;;28.50;71.40;;;;;;4991207;28;20434;-56
2021/08/21 10:41:10;;;;;;;6.47;5.90;;;28.80;70.80;;;;;;4984517;28;20522;-55
2021/08/21 10:43:52;;;;;;;6.97;6.40;;;28.90;71.00;;;;;;4991510;28;20479;-55
2021/08/21 10:46:30;;;;;;;7.00;6.30;;;28.70;70.30;;;;;;4991738;28;20455;-55
2021/08/21 10:49:03;;;;;;;7.30;6.67;;;28.40;71.80;;;;;;4981807;28;20467;-56
2021/08/21 10:51:33;;;;;;;6.13;5.60;;;28.50;72.50;;;;;;4991543;28;20447;-56
2021/08/21 10:53:59;;;;;;;7.17;6.10;;;28.60;71.80;;;;;;4990530;28;20471;-55
2021/08/21 10:56:36;;;;;;;6.70;6.20;;;28.60;71.90;;;;;;4983983;28;20459;-56
2021/08/21 10:59:02;;;;;;;6.50;6.00;;;28.60;72.50;;;;;;4990055;28;20511;-55
2021/08/21 11:01:28;;;;;;;6.60;6.00;;;28.80;71.30;;;;;;4986044;28;20584;-56
2021/08/21 11:03:55;;;;;;;6.43;5.93;;;28.70;71.20;;;;;;4990864;28;20481;-55
2021/08/21 11:06:35;;;;;;;8.07;6.60;;;29.00;70.40;;;;;;4991701;28;20456;-56
2021/08/21 11:09:09;;;;;;;6.50;6.00;;;29.00;70.30;;;;;;4987320;28;20527;-56
2021/08/21 11:11:46;;;;;;;7.00;6.50;;;29.00;69.80;;;;;;4983709;28;20759;-56
2021/08/21 11:14:22;;;;;;;7.07;6.37;;;29.00;69.20;;;;;;4991007;28;20439;-56
2021/08/21 11:17:11;;;;;;;6.70;6.30;;;29.00;69.80;;;;;;4991161;28;20885;-56
2021/08/21 11:19:44;;;;;;;7.00;6.50;;;28.90;70.80;;;;;;4990066;28;20979;-56
2021/08/21 11:22:10;;;;;;;6.67;6.17;;;29.00;70.80;;;;;;4990275;28;20552;-56
2021/08/21 11:24:38;;;;;;;6.47;5.97;;;29.10;70.10;;;;;;4991515;28;20528;-56
2021/08/21 11:27:22;;;;;;;6.30;5.80;;;29.20;68.00;;;;;;4989428;28;20209;-55
2021/08/21 11:30:06;;;;;;;9.97;6.47;;;29.30;68.40;;;;;;4991116;28;20474;-56
2021/08/21 11:32:33;;;;;;;9.27;6.73;;;29.30;68.80;;;;;;4990595;28;20533;-56
2021/08/21 11:34:59;;;;;;;5.57;5.17;;;29.30;69.10;;;;;;4988464;28;20460;-56
2021/08/21 11:37:28;;;;;;;6.43;5.93;;;29.20;69.30;;;;;;4990668;28;20455;-56
2021/08/21 11:39:55;;;;;;;5.70;5.30;;;29.30;67.90;;;;;;4990670;28;20206;-56
2021/08/21 11:42:21;;;;;;;7.00;6.30;;;29.40;68.50;;;;;;4986428;28;21108;-56
2021/08/21 11:44:55;;;;;;;6.40;5.80;;;29.40;68.40;;;;;;4990342;28;20453;-56
2021/08/21 11:47:32;;;;;;;6.57;5.90;;;29.40;67.80;;;;;;4990865;28;20459;-56
2021/08/21 11:49:58;;;;;;;6.90;6.30;;;29.40;69.40;;;;;;4987703;28;20498;-57
2021/08/21 11:52:23;;;;;;;7.40;6.70;;;29.50;68.00;;;;;;4990554;28;20521;-56
2021/08/21 11:54:50;;;;;;;6.30;5.80;;;29.70;67.80;;;;;;4989353;28;20249;-56
2021/08/21 11:57:15;;;;;;;6.53;6.03;;;29.80;68.60;;;;;;4985901;28;20207;-56
2021/08/21 11:59:41;;;;;;;6.80;6.20;;;30.00;67.50;;;;;;4989643;28;20454;-56
2021/08/21 12:02:11;;;;;;;5.93;5.53;;;30.00;67.70;;;;;;4991757;28;20238;-56
2021/08/21 12:04:53;;;;;;;6.63;6.13;;;30.30;65.80;;;;;;4989111;28;20180;-56
2021/08/21 12:07:32;;;;;;;6.53;5.93;;;30.60;64.20;;;;;;4990391;28;20616;-56
2021/08/21 12:09:58;;;;;;;6.30;5.70;;;30.40;63.50;;;;;;4990513;28;20445;-57
2021/08/21 12:12:24;;;;;;;6.33;5.83;;;30.60;63.80;;;;;;4988228;28;20438;-56
2021/08/21 12:14:50;;;;;;;5.47;5.07;;;30.50;62.30;;;;;;4990307;28;20291;-56
2021/08/21 12:17:16;;;;;;;5.90;5.40;;;30.30;61.60;;;;;;4990395;28;20692;-57
2021/08/21 12:19:42;;;;;;;6.37;5.00;;;30.30;63.50;;;;;;4988368;28;20473;-56
2021/08/21 12:22:09;;;;;;;6.03;5.53;;;30.30;62.30;;;;;;4990085;28;20462;-56
2021/08/21 12:24:35;;;;;;;6.20;5.70;;;30.30;61.80;;;;;;4990608;28;20445;-56
2021/08/21 12:27:00;;;;;;;5.50;5.10;;;30.40;62.00;;;;;;4987432;28;20461;-56
2021/08/21 12:29:31;;;;;;;6.20;5.53;;;30.50;61.30;;;;;;4989012;28;20816;-56
2021/08/21 12:31:59;;;;;;;5.83;5.43;;;30.30;62.40;;;;;;4989978;28;20194;-56
2021/08/21 12:34:26;;;;;;;6.03;5.60;;;30.50;62.80;;;;;;4988218;28;20439;-57
2021/08/21 12:36:56;;;;;;;7.27;6.57;;;30.50;61.70;;;;;;4989202;28;20821;-56
2021/08/21 12:39:23;;;;;;;6.07;5.63;;;30.20;63.10;;;;;;4988663;28;20534;-56
2021/08/21 12:41:54;;;;;;;10.40;9.60;;;30.20;62.20;;;;;;4988051;28;20477;-57
2021/08/21 12:44:36;;;;;;;6.07;5.57;;;30.20;62.20;;;;;;4982434;28;20442;-56
2021/08/21 12:47:11;;;;;;;5.90;5.50;;;30.10;62.40;;;;;;4988454;28;20454;-56
2021/08/21 12:49:38;;;;;;;5.40;5.00;;;30.20;63.10;;;;;;4987726;28;20822;-57